Terminal Aerodrome Forecast
Issued by NWS Louisville, KY

Home | Current Version | Previous Version | Text Only | Print | Product List | Glossary On
Versions: 1 2 3 4 5 6 7 8 9 10 11 12 13 14 15 16 17 18 19 20 21 22 23
000
FTUS43 KLMK 190538
TAFLEX
TAF
KLEX 190538Z 1906/2006 22003KT P6SM FEW070 FEW250
     FM191300 20007KT P6SM FEW060 SCT200
     FM191600 23010KT P6SM VCSH SCT040 SCT200
     FM192000 26008KT P6SM FEW040 FEW150
     FM200000 28004KT P6SM FEW050 FEW200=

USA.gov is the U.S. government's official web portal to all federal, state and local government web resources and services.